Latest Weather Observations for Nerriga

IDN60801

Issued at 4:02 pm EDT Tuesday 24 January 2017 (issued every 30 minutes, with the page automatically refreshed every 10 minutes)

About weather observations | Map of weather stations | Latest weather observations for NSW | Other Formats
Station Details ID: 069128 Name: NERRIGA AWS Lat: -35.11 Lon: 150.08 Height: 622.0 m
Data from the previous 72 hours. | See also: Recent months at Nerriga
Date/Time
EDT
Temp
°C
App
Temp
°C
Dew
Point
°C
Rel
Hum
%
Delta-T
°C
Wind Press
QNH
hPa
Press
MSL
hPa
Rain since
9am
mm
Dir  Spd
km/h
Gust
km/h
Spd
kts
Gust
kts
24/04:00pm 21.1 19.4 19.0 88 1.4 ESE 26 37 14 20 1013.3 1010.7 0.0
24/03:30pm 24.0 23.1 18.2 70 3.7 SE 20 32 11 17 1012.8 1010.1 0.0
24/03:22pm 24.2 23.5 16.5 62 4.8 SW 15 28 8 15 1012.8 1010.1 0.0
24/03:00pm 29.5 26.4 15.6 43 8.8 W 26 35 14 19 1012.3 1009.6 0.0
24/02:30pm 30.2 27.5 15.5 41 9.3 W 24 37 13 20 1012.1 1009.4 0.0
24/02:00pm 30.7 27.7 15.9 40 9.4 W 26 43 14 23 1011.9 1009.1 0.0
24/01:30pm 30.6 25.8 14.7 38 9.9 W 33 46 18 25 1011.5 1008.8 0.0
24/01:02pm 31.3 26.9 15.7 39 9.9 W 33 52 18 28 1011.3 1008.6 0.0
24/01:00pm 30.7 26.2 15.5 39 9.6 WNW 33 50 18 27 1011.3 1008.6 0.0
24/12:33pm 30.4 25.4 16.0 41 9.2 WNW 37 57 20 31 1011.0 1008.3 0.0
24/12:30pm 29.9 24.9 16.0 43 8.8 WNW 37 52 20 28 1011.1 1008.4 0.0
24/12:12pm 28.8 25.5 18.0 52 7.0 W 32 52 17 28 1011.0 1008.3 0.0
24/12:00pm 28.6 25.7 19.2 56 6.2 WNW 33 50 18 27 1010.8 1008.1 0.0
24/11:33am 26.9 23.6 19.3 63 5.0 WNW 35 54 19 29 1010.6 1007.9 0.0
24/11:30am 27.0 23.4 19.4 63 5.0 WNW 37 54 20 29 1010.7 1008.0 0.0
24/11:02am 26.4 22.7 20.0 68 4.3 WNW 39 57 21 31 1010.5 1007.8 0.0
24/11:00am 26.2 22.0 19.8 68 4.3 WNW 41 57 22 31 1010.4 1007.6 0.0
24/10:57am 26.3 22.9 19.9 68 4.3 WNW 37 56 20 30 1010.4 1007.6 0.0
24/10:30am 25.6 21.1 19.9 70 3.8 NW 43 61 23 33 1009.9 1007.2 0.0
24/10:05am 25.9 22.8 20.5 72 3.6 NW 37 57 20 31 1009.9 1007.2 0.0
24/10:00am 25.7 21.8 20.3 72 3.6 WNW 41 57 22 31 1010.0 1007.3 0.0
24/09:39am 25.4 22.9 20.2 73 3.5 WNW 33 52 18 28 1010.3 1007.5 0.0
24/09:30am 25.4 22.8 20.0 72 3.6 NW 33 50 18 27 1010.5 1007.8 0.0
24/09:11am 25.4 23.3 19.8 71 3.7 WNW 30 48 16 26 1010.5 1007.8 0.0
24/09:00am 25.4 23.3 19.8 71 3.7 NW 30 43 16 23 1010.6 1007.9 0.0
24/08:31am 25.4 21.8 19.3 69 4.0 NW 37 57 20 31 1010.4 1007.6 0.0
24/08:30am 25.4 22.1 19.3 69 4.0 NW 35 50 19 27 1010.4 1007.6 0.0
24/08:09am 25.5 20.8 18.7 66 4.4 NW 41 59 22 32 1010.2 1007.4 0.0
24/08:00am 25.7 20.6 18.6 65 4.6 NW 43 59 23 32 1009.9 1007.2 0.0
24/07:30am 26.3 20.9 17.1 57 5.9 NW 41 65 22 35 1009.7 1007.0 0.0
24/07:18am 26.4 21.2 16.6 55 6.2 NW 39 61 21 33 1009.4 1006.7 0.0
24/07:00am 26.3 21.6 16.8 56 6.1 NW 37 54 20 29 1009.1 1006.4 0.0
24/06:30am 26.0 21.7 16.8 57 5.8 NW 35 46 19 25 1009.1 1006.4 0.0
24/06:11am 26.6 23.3 17.1 56 6.1 WNW 30 50 16 27 1009.1 1006.4 0.0
24/06:00am 26.8 23.1 17.0 55 6.3 NW 32 41 17 22 1008.9 1006.1 0.0
24/05:43am 26.6 23.2 16.8 55 6.2 NW 30 50 16 27 1008.7 1005.9 0.0
24/05:30am 27.2 23.3 16.5 52 6.8 WNW 32 46 17 25 1008.9 1006.1 0.0
24/05:14am 27.5 23.4 16.5 51 7.0 NW 33 54 18 29 1008.7 1005.9 0.0
24/05:00am 27.4 23.5 16.4 51 7.0 NW 32 50 17 27 1008.1 1005.4 0.0
24/04:30am 27.6 24.0 16.2 49 7.2 NW 30 54 16 29 1007.7 1005.0 0.0
24/04:29am 27.6 24.4 16.2 49 7.2 NW 28 54 15 29 1007.6 1004.8 0.0
24/04:00am 27.3 24.7 16.0 50 7.1 NW 24 39 13 21 1008.1 1005.4 0.0
24/03:30am 26.3 25.2 16.3 54 6.3 NNW 17 26 9 14 1008.3 1005.6 0.0
24/03:00am 25.1 25.5 17.3 62 5.0 N 11 19 6 10 1008.5 1005.7 0.0
24/02:30am 25.0 26.4 17.7 64 4.7 N 7 9 4 5 1008.7 1005.9 0.0
24/02:00am 24.9 26.0 18.1 66 4.4 NNW 9 11 5 6 1009.0 1006.2 0.0
24/01:30am 25.3 26.9 18.2 64 4.6 NNW 7 9 4 5 1009.4 1006.7 0.0
24/01:00am 25.2 27.0 18.2 65 4.5 NNW 6 7 3 4 1009.7 1007.0 0.0
24/12:30am 25.4 26.9 18.1 64 4.7 NNW 7 9 4 5 1010.0 1007.3 0.0
24/12:00am 25.6 27.1 18.0 63 4.9 NNW 7 9 4 5 1010.3 1007.5 0.0
 
Date/Time
EDT
Temp
°C
App
Temp
°C
Dew
Point
°C
Rel
Hum
%
Delta-T
°C
Wind Press
QNH
hPa
Press
MSL
hPa
Rain since
9am
mm
Dir  Spd
km/h
Gust
km/h
Spd
kts
Gust
kts
23/11:30pm 25.9 27.0 18.1 62 5.1 NNW 9 11 5 6 1010.6 1007.9 0.0
23/11:00pm 26.4 27.3 18.3 61 5.3 NNW 11 19 6 10 1010.9 1008.2 0.0
23/10:30pm 26.5 27.6 18.1 60 5.5 NNW 9 11 5 6 1011.1 1008.4 0.0
23/10:00pm 26.5 26.9 18.1 60 5.5 NW 13 17 7 9 1011.4 1008.7 0.0
23/09:30pm 26.7 27.6 17.5 57 5.9 NW 9 13 5 7 1010.9 1008.2 0.0
23/09:00pm 27.3 27.7 17.2 54 6.5 NW 11 17 6 9 1010.7 1008.0 0.0
23/08:30pm 28.5 27.7 17.1 50 7.3 NW 17 26 9 14 1010.4 1007.6 0.0
23/08:00pm 28.7 27.3 16.6 48 7.7 WNW 19 26 10 14 1010.0 1007.3 0.0
23/07:30pm 29.9 26.3 15.2 41 9.2 NW 28 41 15 22 1010.2 1007.4 0.0
23/07:29pm 30.2 26.5 15.1 40 9.5 NW 28 41 15 22 1010.2 1007.4 0.0
23/07:00pm 28.9 30.7 17.4 49 7.5 ENE 4 11 2 6 1009.6 1006.9 0.0
23/06:30pm 29.4 30.5 17.2 47 7.9 ENE 7 11 4 6 1009.3 1006.6 0.0
23/06:00pm 33.1 30.5 13.7 31 12.1 NW 20 30 11 16 1008.9 1006.1 0.0
23/05:30pm 33.6 32.3 13.6 29 12.4 NW 13 20 7 11 1009.0 1006.2 0.0
23/05:00pm 34.7 32.4 14.0 28 13.0 NW 19 32 10 17 1009.1 1006.4 0.0
23/04:30pm 34.5 32.1 15.4 32 12.2 NW 22 37 12 20 1009.6 1006.9 0.0
23/04:00pm 34.1 31.2 15.1 32 12.1 WNW 24 37 13 20 1010.0 1007.3 0.0
23/03:30pm 35.3 33.0 15.6 31 12.7 NW 22 43 12 23 1010.3 1007.5 0.0
23/03:21pm 34.9 30.9 15.3 31 12.5 NW 30 56 16 30 1010.3 1007.5 0.0
23/03:20pm 35.4 32.0 15.7 31 12.7 NW 28 56 15 30 1010.2 1007.4 0.0
23/03:00pm 34.1 31.5 16.0 34 11.7 NNW 24 37 13 20 1010.8 1008.1 0.0
23/02:30pm 32.8 29.5 14.9 34 11.3 NW 26 39 14 21 1011.2 1008.5 0.0
23/02:00pm 31.9 32.2 15.0 36 10.7 NNW 7 26 4 14 1011.7 1009.0 0.0
23/01:30pm 31.3 31.0 14.4 35 10.6 NNW 9 17 5 9 1012.2 1009.5 0.0
23/01:00pm 31.3 30.9 15.3 38 10.1 NNE 11 20 6 11 1012.6 1009.9 0.0
23/12:30pm 30.4 30.6 15.7 41 9.3 N 9 20 5 11 1013.2 1010.5 0.0
23/12:00pm 29.6 29.8 15.7 43 8.8 N 9 13 5 7 1013.7 1011.0 0.0
23/11:30am 27.9 27.2 15.5 46 7.8 NNW 13 20 7 11 1014.2 1011.5 0.0
23/11:00am 26.7 26.5 15.7 51 6.9 N 11 20 6 11 1014.5 1011.8 0.0
23/10:30am 24.8 24.8 16.2 58 5.4 ENE 11 17 6 9 1014.8 1012.2 0.0
23/10:00am 22.7 22.9 15.8 65 4.3 E 9 15 5 8 1015.0 1012.4 0.0
23/09:30am 20.3 20.4 15.5 74 2.9 E 9 15 5 8 1015.4 1012.7 0.0
23/09:00am 19.3 19.4 15.4 78 2.4 E 9 17 5 9 1015.4 1012.7 0.2
23/08:30am 17.4 17.5 15.4 88 1.2 E 9 11 5 6 1015.5 1012.8 0.2
23/08:00am 16.1 16.7 15.3 95 0.5 E 6 7 3 4 1015.5 1012.8 0.2
23/07:30am 15.2 15.6 14.7 97 0.3 E 6 7 3 4 1015.4 1012.7 0.2
23/07:00am 14.9 16.0 14.6 98 0.2 E 2 6 1 3 1015.3 1012.6 0.2
23/06:30am 13.8 14.8 13.3 97 0.3 CALM 0 0 0 0 1014.9 1012.3 0.2
23/06:00am 13.9 15.0 13.4 97 0.3 CALM 0 0 0 0 1014.9 1012.3 0.2
23/05:30am 13.9 15.0 13.4 97 0.3 CALM 0 2 0 1 1014.8 1012.2 0.2
23/05:00am 14.1 14.5 13.6 97 0.3 E 4 4 2 2 1014.5 1011.8 0.2
23/04:30am 13.6 14.5 13.0 96 0.3 CALM 0 0 0 0 1014.7 1012.1 0.2
23/04:00am 14.0 15.0 13.2 95 0.5 CALM 0 0 0 0 1014.8 1012.2 0.2
23/03:30am 14.6 15.4 13.6 94 0.6 E 2 6 1 3 1014.9 1012.3 0.2
23/03:00am 14.9 15.1 14.1 95 0.5 E 6 6 3 3 1014.8 1012.2 0.2
23/02:30am 14.9 14.9 14.1 95 0.5 E 7 7 4 4 1015.1 1012.5 0.2
23/02:00am 15.0 15.0 14.2 95 0.5 E 7 9 4 5 1015.6 1012.9 0.2
23/01:30am 15.0 15.0 14.2 95 0.5 E 7 9 4 5 1015.8 1013.1 0.2
23/01:00am 15.2 16.1 14.1 93 0.6 E 2 6 1 3 1016.4 1013.8 0.2
23/12:30am 15.6 15.7 14.5 93 0.6 E 7 9 4 5 1016.6 1014.0 0.2
23/12:00am 15.8 16.1 14.5 92 0.8 E 6 9 3 5 1016.8 1014.2 0.2
 
Date/Time
EDT
Temp
°C
App
Temp
°C
Dew
Point
°C
Rel
Hum
%
Delta-T
°C
Wind Press
QNH
hPa
Press
MSL
hPa
Rain since
9am
mm
Dir  Spd
km/h
Gust
km/h
Spd
kts
Gust
kts
22/11:30pm 15.9 16.3 14.8 93 0.7 E 6 9 3 5 1016.8 1014.2 0.2
22/11:00pm 15.8 16.5 14.5 92 0.8 E 4 7 2 4 1017.0 1014.3 0.2
22/10:30pm 16.0 16.3 14.5 91 0.9 E 6 7 3 4 1017.1 1014.4 0.2
22/10:00pm 16.4 16.6 14.6 89 1.1 E 7 9 4 5 1017.1 1014.4 0.2
22/09:30pm 17.0 17.3 14.5 85 1.5 E 6 9 3 5 1016.7 1014.1 0.2
22/09:00pm 17.6 17.3 14.5 82 1.8 E 9 11 5 6 1016.4 1013.8 0.2
22/08:30pm 18.4 17.8 14.7 79 2.2 E 11 17 6 9 1016.3 1013.7 0.2
22/08:00pm 19.4 18.4 14.6 74 2.9 E 13 20 7 11 1016.1 1013.4 0.2
22/07:30pm 20.6 18.9 14.7 69 3.6 ENE 17 22 9 12 1015.9 1013.2 0.2
22/07:00pm 21.9 20.1 14.5 63 4.5 E 17 22 9 12 1015.5 1012.8 0.2
22/06:30pm 22.7 20.3 14.3 59 5.1 ENE 20 28 11 15 1015.1 1012.5 0.2
22/06:00pm 23.7 20.4 14.1 55 5.8 E 24 33 13 18 1014.9 1012.3 0.2
22/05:30pm 23.9 19.8 13.7 53 6.1 ENE 28 35 15 19 1014.9 1012.3 0.2
22/05:00pm 25.1 22.0 14.6 52 6.4 E 24 35 13 19 1015.1 1012.5 0.2
22/04:30pm 25.6 22.3 14.1 49 7.0 E 24 33 13 18 1015.4 1012.7 0.2
22/04:00pm 25.6 21.9 13.8 48 7.1 ENE 26 35 14 19 1015.4 1012.7 0.2
22/03:30pm 25.8 21.8 14.0 48 7.2 E 28 37 15 20 1015.6 1012.9 0.2
22/03:00pm 26.5 23.8 13.6 45 7.8 ENE 20 30 11 16 1015.8 1013.1 0.2
22/02:30pm 26.8 25.6 11.7 39 8.9 NE 9 15 5 8 1016.1 1013.4 0.2
22/02:00pm 26.6 25.9 13.3 43 8.0 NE 9 15 5 8 1016.5 1013.9 0.2
22/01:30pm 25.3 24.7 13.5 48 7.1 NNE 9 17 5 9 1016.8 1014.2 0.2
22/01:00pm 23.6 22.6 13.5 53 6.0 NE 11 20 6 11 1017.2 1014.5 0.2
22/12:30pm 23.0 22.1 13.8 56 5.5 N 11 19 6 10 1017.6 1015.0 0.2
22/12:00pm 21.9 21.5 14.0 61 4.7 E 9 17 5 9 1018.1 1015.5 0.2
22/11:30am 20.5 20.0 13.7 65 4.0 E 9 19 5 10 1018.3 1015.7 0.0
22/11:00am 19.4 18.4 13.3 68 3.6 E 11 17 6 9 1018.5 1015.9 0.0
22/10:30am 17.8 17.3 12.7 72 2.9 E 7 13 4 7 1018.8 1016.1 0.0
22/10:00am 17.7 17.4 13.2 75 2.6 E 7 13 4 7 1018.9 1016.2 0.0
22/09:30am 16.6 16.3 12.6 77 2.3 E 6 11 3 6 1019.0 1016.3 0.0
22/09:00am 16.5 16.5 12.5 77 2.3 E 4 6 2 3 1019.1 1016.5 0.0
22/08:30am 15.4 15.7 12.2 81 1.8 E 2 6 1 3 1019.1 1016.5 0.0
22/08:00am 14.9 15.3 12.4 85 1.4 E 2 6 1 3 1019.1 1016.5 0.0
22/07:30am 13.4 14.1 12.3 93 0.6 CALM 0 0 0 0 1018.9 1016.2 0.0
22/07:00am 12.7 13.4 12.1 96 0.3 CALM 0 0 0 0 1018.7 1016.0 0.0
22/06:30am 11.8 11.8 11.0 95 0.4 E 2 4 1 2 1018.5 1015.9 0.0
22/06:00am 11.9 11.6 11.3 96 0.3 E 4 6 2 3 1018.3 1015.7 0.0
22/05:30am 11.9 12.3 11.3 96 0.3 CALM 0 2 0 1 1018.3 1015.7 0.0
22/05:00am 11.9 11.9 11.1 95 0.4 E 2 4 1 2 1017.9 1015.3 0.0
22/04:30am 12.2 11.9 11.3 94 0.5 E 4 6 2 3 1017.7 1015.1 0.0
22/04:00am 12.7 11.4 11.4 92 0.7 E 9 13 5 7 1017.5 1014.8 0.0
22/03:30am 13.5 13.2 12.6 94 0.5 E 6 7 3 4 1018.0 1015.4 0.0
22/03:00am 13.4 13.0 12.5 94 0.5 E 6 7 3 4 1018.3 1015.7 0.0
22/02:30am 13.4 13.0 12.3 93 0.6 E 6 9 3 5 1018.4 1015.8 0.0
22/02:00am 13.5 12.2 12.4 93 0.6 E 11 13 6 7 1018.4 1015.8 0.0
22/01:30am 13.5 11.1 12.6 94 0.5 ESE 17 19 9 10 1018.4 1015.8 0.0
22/01:00am 13.6 12.4 12.8 95 0.5 ESE 11 17 6 9 1018.7 1016.0 0.0
22/12:30am 13.7 11.8 12.9 95 0.5 ESE 15 22 8 12 1018.9 1016.2 0.0
22/12:00am 14.0 12.9 13.2 95 0.5 E 11 17 6 9 1018.8 1016.1 0.0
 
Date/Time
EDT
Temp
°C
App
Temp
°C
Dew
Point
°C
Rel
Hum
%
Delta-T
°C
Wind Press
QNH
hPa
Press
MSL
hPa
Rain since
9am
mm
Dir  Spd
km/h
Gust
km/h
Spd
kts
Gust
kts
21/11:30pm 14.1 13.7 13.1 94 0.6 E 7 11 4 6 1018.7 1016.0 0.0
21/11:00pm 14.3 13.6 13.3 94 0.6 E 9 13 5 7 1018.7 1016.0 0.0
21/10:30pm 14.4 13.6 12.8 90 0.9 E 9 13 5 7 1018.5 1015.9 0.0
21/10:00pm 14.5 13.3 12.7 89 1.0 E 11 15 6 8 1018.4 1015.8 0.0
21/09:30pm 14.6 13.4 12.8 89 1.0 E 11 20 6 11 1018.3 1015.7 0.0
21/09:00pm 15.1 12.9 12.1 82 1.7 E 15 20 8 11 1018.1 1015.5 0.0
21/08:30pm 15.5 13.2 11.7 78 2.1 E 15 20 8 11 1017.7 1015.1 0.0
21/08:00pm 15.8 12.7 11.6 76 2.3 E 19 28 10 15 1017.3 1014.6 0.0
21/07:30pm 16.2 12.3 10.9 71 2.9 E 22 35 12 19 1016.4 1013.8 0.0
21/07:00pm 17.1 12.5 10.9 67 3.4 ESE 26 33 14 18 1015.7 1013.0 0.0
21/06:30pm 18.8 15.5 11.6 63 4.1 ESE 20 28 11 15 1014.9 1012.3 0.0
21/06:00pm 19.2 15.1 11.3 60 4.5 ESE 24 37 13 20 1014.4 1011.7 0.0
21/05:30pm 20.1 15.8 10.8 55 5.2 E 24 32 13 17 1014.0 1011.3 0.0
21/05:00pm 20.7 16.4 10.8 53 5.6 E 24 32 13 17 1013.7 1011.0 0.0
21/04:30pm 21.7 17.6 11.4 52 5.9 ENE 24 33 13 18 1013.3 1010.7 0.0

Other Formats:

Comma delimited format used in spreadsheet applications
http://www.bom.gov.au/fwo/IDN60801/IDN60801.94943.axf

JavaScript Object Notation format (JSON) in row-major order
http://www.bom.gov.au/fwo/IDN60801/IDN60801.94943.json